Buoy 56916

sailwx.info

Track history (hours):
 
Tides and Currents Weather Stations Pressure Air Temp Water Temp Dewpoint Dewpoint Depression Visibility Wind Speed Wind Dir Waves Ship Positions

Drifting buoy 56916

Last reported at 2018-Apr-22 05:00 UTC. Time now 2018-Apr-22 06:54 UTC.
Position S 45°37' W 166°34'.

Barometer 995.3 mb
Water temperature 14.6 ° C

Date/timePositionNaut miles runAvg speedWind from/ knotsBaromVisibWave heightAir tempDewpointWater temp
2018-Apr-22 05:00S 45°37' W 166°34'0 0.4 995.3 14.6
2018-Apr-22 04:00S 45°37' W 166°34'1 0.7 994.5 14.6
2018-Apr-22 03:00S 45°38' W 166°34'1 1.0 993.9 14.7
2018-Apr-22 02:00S 45°37' W 166°35'2 1.7 993.3 14.7
2018-Apr-22 01:00S 45°36' W 166°37'0 0.0 992.0 14.7
2018-Apr-21 21:00S 45°36' W 166°37'1 1.0 995.5 14.5
2018-Apr-21 20:00S 45°35' W 166°38'1 0.7 996.5 14.5
2018-Apr-21 19:00S 45°35' W 166°38'1 1.0 997.2 14.5
2018-Apr-21 18:00S 45°34' W 166°39'0 0.0 998.0 14.5
2018-Apr-21 17:00S 45°34' W 166°39'1 1.2 998.9 14.5
2018-Apr-21 16:00S 45°33' W 166°39'0 0.0 999.8 14.5
2018-Apr-21 15:00S 45°33' W 166°39'3 1.7 1000.5 14.6
2018-Apr-21 13:00S 45°30' W 166°41'0 0.0 1002.0 14.7
2018-Apr-21 11:00S 45°30' W 166°41'0 0.0 1003.0 14.5
2018-Apr-21 10:00S 45°30' W 166°41'1 0.6 1003.3 14.4
2018-Apr-21 09:00S 45°29' W 166°41'1 0.4 1003.6 14.4
2018-Apr-21 05:00S 45°28' W 166°43'0 0.4 1003.3 14.5
2018-Apr-21 04:00S 45°28' W 166°43'1 0.8 1003.2 14.5
2018-Apr-21 03:00S 45°28' W 166°44'0 0.0 1003.3 14.6
2018-Apr-21 02:00S 45°28' W 166°44'3 3.5 1003.3 14.6
2018-Apr-21 01:00S 45°26' W 166°49'2 0.5 1003.0 14.5
2018-Apr-20 21:00S 45°25' W 166°51'0 0.0 1004.0 14.4
2018-Apr-20 20:00S 45°25' W 166°51'0 0.0 1004.1 14.4
2018-Apr-20 19:00S 45°25' W 166°51'1 1.4 1004.2 14.3
2018-Apr-20 18:00S 45°25' W 166°53'1 0.6 1003.9 14.3
2018-Apr-20 16:00S 45°23' W 166°53'0 0.0 1004.4 14.4
2018-Apr-20 15:00S 45°23' W 166°53'2 2.4 1004.4 14.4
2018-Apr-20 14:00S 45°22' W 166°56'1 1.0 1004.6 14.4
2018-Apr-20 13:00S 45°23' W 166°55'1 0.5 1005.0 14.5
2018-Apr-20 10:00S 45°22' W 166°56'0 0.4 1005.5 14.6
2018-Apr-20 09:00S 45°22' W 166°57'0 0.4 1006.2 14.6
2018-Apr-20 08:00S 45°22' W 166°58'3 2.8 1006.3 14.6
2018-Apr-20 07:00S 45°21' W 167°01'0 0.0 1006.4 14.6
2018-Apr-20 06:00S 45°21' W 167°01'0 0.0 1007.3 14.6
2018-Apr-20 05:00S 45°21' W 167°01'1 1.0 1007.7 14.7
2018-Apr-20 04:00S 45°20' W 167°02'1 1.4 1008.1 14.7
2018-Apr-20 03:00S 45°20' W 167°04'0 0.4 1008.7 14.7
2018-Apr-20 02:00S 45°20' W 167°04'5 0.9 1009.1 14.8
2018-Apr-19 21:00S 45°18' W 167°10'0 0.0 1008.5 14.7
2018-Apr-19 20:00S 45°18' W 167°10'1 0.7 1008.0 14.7
2018-Apr-19 19:00S 45°19' W 167°09'1 0.8 1007.6 14.7
2018-Apr-19 18:00S 45°19' W 167°10'1 0.6 1006.8 14.7
2018-Apr-19 17:00S 45°19' W 167°10'1 1.3 1006.4 14.8
2018-Apr-19 16:00S 45°19' W 167°12'0 0.4 1006.0 14.8
2018-Apr-19 15:00S 45°19' W 167°11'2 2.4 1005.4 14.7
2018-Apr-19 14:00S 45°20' W 167°14'0 0.0 1004.9 14.8
2018-Apr-19 13:00S 45°20' W 167°14'2 0.7 1004.6 14.8
2018-Apr-19 10:00S 45°20' W 167°17'1 0.8 1003.8 14.8
2018-Apr-19 09:00S 45°20' W 167°19'0 0.0 1003.6 14.8
2018-Apr-19 08:00S 45°20' W 167°19'1 0.8 1002.9 14.8
2018-Apr-19 07:00S 45°20' W 167°20'0 0.4 1002.1 14.8
2018-Apr-19 06:00S 45°20' W 167°20'0 0.0 1001.1 14.8
2018-Apr-19 05:00S 45°20' W 167°20'0 0.4 999.7 14.8
2018-Apr-19 04:00S 45°20' W 167°21'3 1.5 998.4 14.8
2018-Apr-19 02:00S 45°22' W 167°23'0 0.0 996.8 14.9
2018-Apr-18 21:00S 45°22' W 167°23'1 1.0 994.4 14.9
2018-Apr-18 20:00S 45°22' W 167°25'1 0.6 994.9 14.9
2018-Apr-18 19:00S 45°22' W 167°25'1 0.7 996.2 14.9
2018-Apr-18 18:00S 45°22' W 167°24'2 2.0 997.0 14.9
2018-Apr-18 17:00S 45°20' W 167°25'0 0.0 998.5 15.0
2018-Apr-18 16:00S 45°20' W 167°25'3 1.3 1000.6 15.0
2018-Apr-18 14:00S 45°17' W 167°26'3 0.6 1003.0 15.0
2018-Apr-18 10:00S 45°15' W 167°25'1 1.4 1007.9 14.9
2018-Apr-18 09:00S 45°14' W 167°23'0 0.4 1008.8 14.8
2018-Apr-18 08:00S 45°14' W 167°23'0 0.0 1009.5 14.7
2018-Apr-18 07:00S 45°14' W 167°23'0 0.2 1009.9 14.7
2018-Apr-18 05:00S 45°14' W 167°23'1 0.7 1010.5 14.8
2018-Apr-18 04:00S 45°15' W 167°23'1 1.0 1010.5 14.9
2018-Apr-18 03:00S 45°14' W 167°24'4 3.9 1011.2 14.9
2018-Apr-18 02:00S 45°11' W 167°28'0 0.1 1011.5 15.0
2018-Apr-17 21:00S 45°11' W 167°27'1 1.2 1013.4 14.9
2018-Apr-17 20:00S 45°10' W 167°27'0 0.4 1013.6 14.9
2018-Apr-17 19:00S 45°10' W 167°26'1 0.7 1013.6 14.9
2018-Apr-17 18:00S 45°10' W 167°26'3 2.8 1013.3 14.9
2018-Apr-17 17:00S 45°08' W 167°22'1 0.6 1013.6 14.9
2018-Apr-17 15:00S 45°10' W 167°22'1 0.7 1013.8 14.9
2018-Apr-17 14:00S 45°10' W 167°22'0 0.0 1013.7 14.9
2018-Apr-17 13:00S 45°10' W 167°22'1 0.5 1014.0 14.9
2018-Apr-17 10:00S 45°11' W 167°23'0 0.0 1013.8 14.9
2018-Apr-17 09:00S 45°11' W 167°23'0 0.4 1013.5 14.9
2018-Apr-17 08:00S 45°11' W 167°23'1 1.3 1013.4 15.0
2018-Apr-17 07:00S 45°11' W 167°25'1 0.7 1013.5 15.0
2018-Apr-17 06:00S 45°11' W 167°25'1 0.6 1013.4 15.1
2018-Apr-17 05:00S 45°10' W 167°25'1 0.6 1013.3 15.1
2018-Apr-17 04:00S 45°10' W 167°25'0 0.4 1013.2 15.1
2018-Apr-17 03:00S 45°10' W 167°24'0 0.0 1013.1 15.2
2018-Apr-17 02:00S 45°10' W 167°24'4 0.8 1012.7 15.2
2018-Apr-16 21:00S 45°08' W 167°19'1 0.7 1013.1 15.2
2018-Apr-16 20:00S 45°09' W 167°18'1 0.6 1013.4 15.2
2018-Apr-16 19:00S 45°10' W 167°18'1 0.6 1013.9 15.2
2018-Apr-16 18:00S 45°10' W 167°18'0 0.4 1013.5 15.2
2018-Apr-16 17:00S 45°10' W 167°19'1 0.6 1013.5 15.2
2018-Apr-16 16:00S 45°11' W 167°19'0 0.4 1013.3 15.2
2018-Apr-16 15:00S 45°11' W 167°19'1 0.7 1013.8 15.1
2018-Apr-16 14:00S 45°10' W 167°20'1 1.3 1013.7 15.1
2018-Apr-16 13:00S 45°09' W 167°20'1 1.3 1014.1 15.1
2018-Apr-16 12:00S 45°10' W 167°20'1 0.6 1014.4 15.1
2018-Apr-16 10:00S 45°09' W 167°20'1 1.4 1015.2 14.9
2018-Apr-16 09:00S 45°08' W 167°19'1 0.8 1015.4 14.8
2018-Apr-16 08:00S 45°08' W 167°17'1 1.0 1015.3 14.9
2018-Apr-16 07:00S 45°09' W 167°16'1 0.7 1015.0 14.9
2018-Apr-16 06:00S 45°08' W 167°17'1 1.4 1014.9 14.9
2018-Apr-16 05:00S 45°09' W 167°15'1 1.3 1015.1 14.9
2018-Apr-16 04:00S 45°10' W 167°14'0 0.0 1015.2 14.9
2018-Apr-16 03:00S 45°10' W 167°14'3 3.0 1015.1 14.9
2018-Apr-16 02:00S 45°13' W 167°15'0 0.0 1014.8 15.0
2018-Apr-15 21:00S 45°13' W 167°15'1 0.8 1014.8 15.0
2018-Apr-15 20:00S 45°13' W 167°16'1 0.6 1014.5 15.0
2018-Apr-15 19:00S 45°14' W 167°16'1 0.7 1014.0 14.9
2018-Apr-15 18:00S 45°13' W 167°16'0 0.4 1013.2 14.9
2018-Apr-15 17:00S 45°13' W 167°15'1 0.6 1012.8 14.9
2018-Apr-15 16:00S 45°14' W 167°15'1 0.7 1012.6 14.8
2018-Apr-15 15:00S 45°13' W 167°14'1 1.0 1012.0 14.7
2018-Apr-15 14:00S 45°14' W 167°13'3 2.7 1011.7 14.6
2018-Apr-15 13:00S 45°16' W 167°11'3 2.7 1011.4 14.6
2018-Apr-15 12:00S 45°14' W 167°13'4 1.8 1011.1 14.6
2018-Apr-15 10:00S 45°17' W 167°10'1 0.7 1010.3 14.6
2018-Apr-15 09:00S 45°17' W 167°11'1 1.3 1009.7 14.6
2018-Apr-15 08:00S 45°19' W 167°10'1 1.3 1009.1 14.6
2018-Apr-15 07:00S 45°20' W 167°11'0 0.4 1008.4 14.6
2018-Apr-15 06:00S 45°20' W 167°11'1 0.7 1007.8 14.6
2018-Apr-15 05:00S 45°20' W 167°12'0 0.0 1007.0 14.6
2018-Apr-15 04:00S 45°20' W 167°12'1 0.6 1006.2 14.6
2018-Apr-15 03:00S 45°21' W 167°12'0 0.0 1005.3 14.6
2018-Apr-15 02:00S 45°21' W 167°12'2 1.7 1004.8 14.6
2018-Apr-15 01:00S 45°20' W 167°10'1 0.3 1004.0 14.6
2018-Apr-14 21:00S 45°20' W 167°09'0 0.0 1001.9 14.6
2018-Apr-14 20:00S 45°20' W 167°09'0 0.4 1001.1 14.6
2018-Apr-14 19:00S 45°20' W 167°08'1 1.2 1000.2 14.7
2018-Apr-14 18:00S 45°22' W 167°08'1 0.6 999.4 14.7
2018-Apr-14 17:00S 45°22' W 167°08'2 2.0 998.7 14.7
2018-Apr-14 16:00S 45°24' W 167°10'1 1.4 998.2 14.7
2018-Apr-14 15:00S 45°25' W 167°11'0 0.0 997.7 14.7
2018-Apr-14 14:00S 45°25' W 167°11'3 2.9 997.3 14.6
2018-Apr-14 13:00S 45°25' W 167°16'0 0.0 997.5 14.6
2018-Apr-14 11:00S 45°25' W 167°16'1 1.0 997.4 14.6
2018-Apr-14 10:00S 45°24' W 167°17'1 0.6 997.5 14.7
2018-Apr-14 09:00S 45°23' W 167°17'1 0.8 997.6 14.7
2018-Apr-14 08:00S 45°23' W 167°18'1 1.2 997.6 14.7
2018-Apr-14 07:00S 45°22' W 167°18'0 0.0 997.7 14.6
2018-Apr-14 06:00S 45°22' W 167°18'0 0.0 997.6 14.6
2018-Apr-14 05:00S 45°22' W 167°18'1 0.7 997.2 14.6
2018-Apr-14 04:00S 45°23' W 167°17'2 2.0 997.0 14.6
2018-Apr-14 03:00S 45°25' W 167°19'5 5.2 996.6 14.6
2018-Apr-14 02:00S 45°29' W 167°22'0 0.0 995.8 14.7
2018-Apr-14 01:00S 45°29' W 167°22'0 0.0 994.8 14.6
2018-Apr-13 21:00S 45°29' W 167°22'1 0.6 990.0 14.6
2018-Apr-13 20:00S 45°30' W 167°22'1 0.8 988.4 14.6
2018-Apr-13 19:00S 45°30' W 167°23'1 1.2 987.5 14.6
2018-Apr-13 18:00S 45°29' W 167°23'0 0.0 987.2 14.6
2018-Apr-13 16:00S 45°29' W 167°23'0 0.0 988.0 14.7
2018-Apr-13 15:00S 45°29' W 167°23'4 1.9 988.7 14.7
2018-Apr-13 13:00S 45°27' W 167°18'1 0.2 992.6 14.6
2018-Apr-13 10:00S 45°28' W 167°17'1 0.7 998.0 14.7
2018-Apr-13 09:00S 45°28' W 167°18'1 1.0 999.1 14.7
2018-Apr-13 08:00S 45°29' W 167°17'1 0.8 999.8 14.7
2018-Apr-13 07:00S 45°29' W 167°18'1 0.5 1000.2 14.7
2018-Apr-13 05:00S 45°28' W 167°19'1 1.4 1001.4 14.7
2018-Apr-13 04:00S 45°28' W 167°21'0 0.0 1002.2 14.7
2018-Apr-13 03:00S 45°28' W 167°21'0 0.0 1001.9 14.8
2018-Apr-13 02:00S 45°28' W 167°21'1 1.5 1002.0 14.8
2018-Apr-13 01:00S 45°26' W 167°22'1 0.1 1002.1 14.8
2018-Apr-12 20:00S 45°27' W 167°22'1 0.6 999.6 14.8
2018-Apr-12 19:00S 45°28' W 167°22'0 0.4 998.2 14.8
2018-Apr-12 18:00S 45°28' W 167°23'1 1.2 996.7 14.8
2018-Apr-12 17:00S 45°29' W 167°23'1 1.5 995.6 14.9
2018-Apr-12 16:00S 45°30' W 167°24'0 0.0 995.1 14.9
2018-Apr-12 15:00S 45°30' W 167°24'1 1.4 994.3 14.9
2018-Apr-12 14:00S 45°31' W 167°26'4 3.8 993.1 15.0
2018-Apr-12 13:00S 45°30' W 167°31'0 0.0 991.8 15.0
2018-Apr-12 11:00S 45°30' W 167°31'0 0.0 986.3 15.2
2018-Apr-12 10:00S 45°30' W 167°31'2 2.0 982.0 15.2
2018-Apr-12 09:00S 45°28' W 167°32'1 0.7 981.2 15.3
2018-Apr-12 08:00S 45°28' W 167°32'1 0.7 978.8 15.3
2018-Apr-12 07:00S 45°27' W 167°32'0 0.4 976.6 15.3
2018-Apr-12 06:00S 45°27' W 167°32'0 0.0 978.2 15.2
2018-Apr-12 05:00S 45°27' W 167°32'   982.3 15.2
Track history (hours):
 
Tides and Currents Weather Stations Pressure Air Temp Water Temp Dewpoint Dewpoint Depression Visibility Wind Speed Wind Dir Waves Ship Positions

Drifting buoy 56916

Last reported at 2018-Apr-22 05:00 UTC. Time now 2018-Apr-22 06:54 UTC.
Position S 45°37' W 166°34'.

Barometer 995.3 mb
Water temperature 14.6 ° C

Date/timePositionNaut miles runAvg speedWind from/ knotsBaromVisibWave heightAir tempDewpointWater temp
2018-Apr-22 05:00S 45°37' W 166°34'0 0.4 995.3 14.6
2018-Apr-22 04:00S 45°37' W 166°34'1 0.7 994.5 14.6
2018-Apr-22 03:00S 45°38' W 166°34'1 1.0 993.9 14.7
2018-Apr-22 02:00S 45°37' W 166°35'2 1.7 993.3 14.7
2018-Apr-22 01:00S 45°36' W 166°37'0 0.0 992.0 14.7
2018-Apr-21 21:00S 45°36' W 166°37'1 1.0 995.5 14.5
2018-Apr-21 20:00S 45°35' W 166°38'1 0.7 996.5 14.5
2018-Apr-21 19:00S 45°35' W 166°38'1 1.0 997.2 14.5
2018-Apr-21 18:00S 45°34' W 166°39'0 0.0 998.0 14.5
2018-Apr-21 17:00S 45°34' W 166°39'1 1.2 998.9 14.5
2018-Apr-21 16:00S 45°33' W 166°39'0 0.0 999.8 14.5
2018-Apr-21 15:00S 45°33' W 166°39'3 1.7 1000.5 14.6
2018-Apr-21 13:00S 45°30' W 166°41'0 0.0 1002.0 14.7
2018-Apr-21 11:00S 45°30' W 166°41'0 0.0 1003.0 14.5
2018-Apr-21 10:00S 45°30' W 166°41'1 0.6 1003.3 14.4
2018-Apr-21 09:00S 45°29' W 166°41'1 0.4 1003.6 14.4
2018-Apr-21 05:00S 45°28' W 166°43'0 0.4 1003.3 14.5
2018-Apr-21 04:00S 45°28' W 166°43'1 0.8 1003.2 14.5
2018-Apr-21 03:00S 45°28' W 166°44'0 0.0 1003.3 14.6
2018-Apr-21 02:00S 45°28' W 166°44'3 3.5 1003.3 14.6
2018-Apr-21 01:00S 45°26' W 166°49'2 0.5 1003.0 14.5
2018-Apr-20 21:00S 45°25' W 166°51'0 0.0 1004.0 14.4
2018-Apr-20 20:00S 45°25' W 166°51'0 0.0 1004.1 14.4
2018-Apr-20 19:00S 45°25' W 166°51'1 1.4 1004.2 14.3
2018-Apr-20 18:00S 45°25' W 166°53'1 0.6 1003.9 14.3
2018-Apr-20 16:00S 45°23' W 166°53'0 0.0 1004.4 14.4
2018-Apr-20 15:00S 45°23' W 166°53'2 2.4 1004.4 14.4
2018-Apr-20 14:00S 45°22' W 166°56'1 1.0 1004.6 14.4
2018-Apr-20 13:00S 45°23' W 166°55'1 0.5 1005.0 14.5
2018-Apr-20 10:00S 45°22' W 166°56'0 0.4 1005.5 14.6
2018-Apr-20 09:00S 45°22' W 166°57'0 0.4 1006.2 14.6
2018-Apr-20 08:00S 45°22' W 166°58'3 2.8 1006.3 14.6
2018-Apr-20 07:00S 45°21' W 167°01'0 0.0 1006.4 14.6
2018-Apr-20 06:00S 45°21' W 167°01'0 0.0 1007.3 14.6
2018-Apr-20 05:00S 45°21' W 167°01'1 1.0 1007.7 14.7
2018-Apr-20 04:00S 45°20' W 167°02'1 1.4 1008.1 14.7
2018-Apr-20 03:00S 45°20' W 167°04'0 0.4 1008.7 14.7
2018-Apr-20 02:00S 45°20' W 167°04'5 0.9 1009.1 14.8
2018-Apr-19 21:00S 45°18' W 167°10'0 0.0 1008.5 14.7
2018-Apr-19 20:00S 45°18' W 167°10'1 0.7 1008.0 14.7
2018-Apr-19 19:00S 45°19' W 167°09'1 0.8 1007.6 14.7
2018-Apr-19 18:00S 45°19' W 167°10'1 0.6 1006.8 14.7
2018-Apr-19 17:00S 45°19' W 167°10'1 1.3 1006.4 14.8
2018-Apr-19 16:00S 45°19' W 167°12'0 0.4 1006.0 14.8
2018-Apr-19 15:00S 45°19' W 167°11'2 2.4 1005.4 14.7
2018-Apr-19 14:00S 45°20' W 167°14'0 0.0 1004.9 14.8
2018-Apr-19 13:00S 45°20' W 167°14'2 0.7 1004.6 14.8
2018-Apr-19 10:00S 45°20' W 167°17'1 0.8 1003.8 14.8
2018-Apr-19 09:00S 45°20' W 167°19'0 0.0 1003.6 14.8
2018-Apr-19 08:00S 45°20' W 167°19'1 0.8 1002.9 14.8
2018-Apr-19 07:00S 45°20' W 167°20'0 0.4 1002.1 14.8
2018-Apr-19 06:00S 45°20' W 167°20'0 0.0 1001.1 14.8
2018-Apr-19 05:00S 45°20' W 167°20'0 0.4 999.7 14.8
2018-Apr-19 04:00S 45°20' W 167°21'3 1.5 998.4 14.8
2018-Apr-19 02:00S 45°22' W 167°23'0 0.0 996.8 14.9
2018-Apr-18 21:00S 45°22' W 167°23'1 1.0 994.4 14.9
2018-Apr-18 20:00S 45°22' W 167°25'1 0.6 994.9 14.9
2018-Apr-18 19:00S 45°22' W 167°25'1 0.7 996.2 14.9
2018-Apr-18 18:00S 45°22' W 167°24'2 2.0 997.0 14.9
2018-Apr-18 17:00S 45°20' W 167°25'0 0.0 998.5 15.0
2018-Apr-18 16:00S 45°20' W 167°25'3 1.3 1000.6 15.0
2018-Apr-18 14:00S 45°17' W 167°26'3 0.6 1003.0 15.0
2018-Apr-18 10:00S 45°15' W 167°25'1 1.4 1007.9 14.9
2018-Apr-18 09:00S 45°14' W 167°23'0 0.4 1008.8 14.8
2018-Apr-18 08:00S 45°14' W 167°23'0 0.0 1009.5 14.7
2018-Apr-18 07:00S 45°14' W 167°23'0 0.2 1009.9 14.7
2018-Apr-18 05:00S 45°14' W 167°23'1 0.7 1010.5 14.8
2018-Apr-18 04:00S 45°15' W 167°23'1 1.0 1010.5 14.9
2018-Apr-18 03:00S 45°14' W 167°24'4 3.9 1011.2 14.9
2018-Apr-18 02:00S 45°11' W 167°28'0 0.1 1011.5 15.0
2018-Apr-17 21:00S 45°11' W 167°27'1 1.2 1013.4 14.9
2018-Apr-17 20:00S 45°10' W 167°27'0 0.4 1013.6 14.9
2018-Apr-17 19:00S 45°10' W 167°26'1 0.7 1013.6 14.9
2018-Apr-17 18:00S 45°10' W 167°26'3 2.8 1013.3 14.9
2018-Apr-17 17:00S 45°08' W 167°22'1 0.6 1013.6 14.9
2018-Apr-17 15:00S 45°10' W 167°22'1 0.7 1013.8 14.9
2018-Apr-17 14:00S 45°10' W 167°22'0 0.0 1013.7 14.9
2018-Apr-17 13:00S 45°10' W 167°22'1 0.5 1014.0 14.9
2018-Apr-17 10:00S 45°11' W 167°23'0 0.0 1013.8 14.9
2018-Apr-17 09:00S 45°11' W 167°23'0 0.4 1013.5 14.9
2018-Apr-17 08:00S 45°11' W 167°23'1 1.3 1013.4 15.0
2018-Apr-17 07:00S 45°11' W 167°25'1 0.7 1013.5 15.0
2018-Apr-17 06:00S 45°11' W 167°25'1 0.6 1013.4 15.1
2018-Apr-17 05:00S 45°10' W 167°25'1 0.6 1013.3 15.1
2018-Apr-17 04:00S 45°10' W 167°25'0 0.4 1013.2 15.1
2018-Apr-17 03:00S 45°10' W 167°24'0 0.0 1013.1 15.2
2018-Apr-17 02:00S 45°10' W 167°24'4 0.8 1012.7 15.2
2018-Apr-16 21:00S 45°08' W 167°19'1 0.7 1013.1 15.2
2018-Apr-16 20:00S 45°09' W 167°18'1 0.6 1013.4 15.2
2018-Apr-16 19:00S 45°10' W 167°18'1 0.6 1013.9 15.2
2018-Apr-16 18:00S 45°10' W 167°18'0 0.4 1013.5 15.2
2018-Apr-16 17:00S 45°10' W 167°19'1 0.6 1013.5 15.2
2018-Apr-16 16:00S 45°11' W 167°19'0 0.4 1013.3 15.2
2018-Apr-16 15:00S 45°11' W 167°19'1 0.7 1013.8 15.1
2018-Apr-16 14:00S 45°10' W 167°20'1 1.3 1013.7 15.1
2018-Apr-16 13:00S 45°09' W 167°20'1 1.3 1014.1 15.1
2018-Apr-16 12:00S 45°10' W 167°20'1 0.6 1014.4 15.1
2018-Apr-16 10:00S 45°09' W 167°20'1 1.4 1015.2 14.9
2018-Apr-16 09:00S 45°08' W 167°19'1 0.8 1015.4 14.8
2018-Apr-16 08:00S 45°08' W 167°17'1 1.0 1015.3 14.9
2018-Apr-16 07:00S 45°09' W 167°16'1 0.7 1015.0 14.9
2018-Apr-16 06:00S 45°08' W 167°17'1 1.4 1014.9 14.9
2018-Apr-16 05:00S 45°09' W 167°15'1 1.3 1015.1 14.9
2018-Apr-16 04:00S 45°10' W 167°14'0 0.0 1015.2 14.9
2018-Apr-16 03:00S 45°10' W 167°14'3 3.0 1015.1 14.9
2018-Apr-16 02:00S 45°13' W 167°15'0 0.0 1014.8 15.0
2018-Apr-15 21:00S 45°13' W 167°15'1 0.8 1014.8 15.0
2018-Apr-15 20:00S 45°13' W 167°16'1 0.6 1014.5 15.0
2018-Apr-15 19:00S 45°14' W 167°16'1 0.7 1014.0 14.9
2018-Apr-15 18:00S 45°13' W 167°16'0 0.4 1013.2 14.9
2018-Apr-15 17:00S 45°13' W 167°15'1 0.6 1012.8 14.9
2018-Apr-15 16:00S 45°14' W 167°15'1 0.7 1012.6 14.8
2018-Apr-15 15:00S 45°13' W 167°14'1 1.0 1012.0 14.7
2018-Apr-15 14:00S 45°14' W 167°13'3 2.7 1011.7 14.6
2018-Apr-15 13:00S 45°16' W 167°11'3 2.7 1011.4 14.6
2018-Apr-15 12:00S 45°14' W 167°13'4 1.8 1011.1 14.6
2018-Apr-15 10:00S 45°17' W 167°10'1 0.7 1010.3 14.6
2018-Apr-15 09:00S 45°17' W 167°11'1 1.3 1009.7 14.6
2018-Apr-15 08:00S 45°19' W 167°10'1 1.3 1009.1 14.6
2018-Apr-15 07:00S 45°20' W 167°11'0 0.4 1008.4 14.6
2018-Apr-15 06:00S 45°20' W 167°11'1 0.7 1007.8 14.6
2018-Apr-15 05:00S 45°20' W 167°12'0 0.0 1007.0 14.6
2018-Apr-15 04:00S 45°20' W 167°12'1 0.6 1006.2 14.6
2018-Apr-15 03:00S 45°21' W 167°12'0 0.0 1005.3 14.6
2018-Apr-15 02:00S 45°21' W 167°12'2 1.7 1004.8 14.6
2018-Apr-15 01:00S 45°20' W 167°10'1 0.3 1004.0 14.6
2018-Apr-14 21:00S 45°20' W 167°09'0 0.0 1001.9 14.6
2018-Apr-14 20:00S 45°20' W 167°09'0 0.4 1001.1 14.6
2018-Apr-14 19:00S 45°20' W 167°08'1 1.2 1000.2 14.7
2018-Apr-14 18:00S 45°22' W 167°08'1 0.6 999.4 14.7
2018-Apr-14 17:00S 45°22' W 167°08'2 2.0 998.7 14.7
2018-Apr-14 16:00S 45°24' W 167°10'1 1.4 998.2 14.7
2018-Apr-14 15:00S 45°25' W 167°11'0 0.0 997.7 14.7
2018-Apr-14 14:00S 45°25' W 167°11'3 2.9 997.3 14.6
2018-Apr-14 13:00S 45°25' W 167°16'0 0.0 997.5 14.6
2018-Apr-14 11:00S 45°25' W 167°16'1 1.0 997.4 14.6
2018-Apr-14 10:00S 45°24' W 167°17'1 0.6 997.5 14.7
2018-Apr-14 09:00S 45°23' W 167°17'1 0.8 997.6 14.7
2018-Apr-14 08:00S 45°23' W 167°18'1 1.2 997.6 14.7
2018-Apr-14 07:00S 45°22' W 167°18'0 0.0 997.7 14.6
2018-Apr-14 06:00S 45°22' W 167°18'0 0.0 997.6 14.6
2018-Apr-14 05:00S 45°22' W 167°18'1 0.7 997.2 14.6
2018-Apr-14 04:00S 45°23' W 167°17'2 2.0 997.0 14.6
2018-Apr-14 03:00S 45°25' W 167°19'5 5.2 996.6 14.6
2018-Apr-14 02:00S 45°29' W 167°22'0 0.0 995.8 14.7
2018-Apr-14 01:00S 45°29' W 167°22'0 0.0 994.8 14.6
2018-Apr-13 21:00S 45°29' W 167°22'1 0.6 990.0 14.6
2018-Apr-13 20:00S 45°30' W 167°22'1 0.8 988.4 14.6
2018-Apr-13 19:00S 45°30' W 167°23'1 1.2 987.5 14.6
2018-Apr-13 18:00S 45°29' W 167°23'0 0.0 987.2 14.6
2018-Apr-13 16:00S 45°29' W 167°23'0 0.0 988.0 14.7
2018-Apr-13 15:00S 45°29' W 167°23'4 1.9 988.7 14.7
2018-Apr-13 13:00S 45°27' W 167°18'1 0.2 992.6 14.6
2018-Apr-13 10:00S 45°28' W 167°17'1 0.7 998.0 14.7
2018-Apr-13 09:00S 45°28' W 167°18'1 1.0 999.1 14.7
2018-Apr-13 08:00S 45°29' W 167°17'1 0.8 999.8 14.7
2018-Apr-13 07:00S 45°29' W 167°18'1 0.5 1000.2 14.7
2018-Apr-13 05:00S 45°28' W 167°19'1 1.4 1001.4 14.7
2018-Apr-13 04:00S 45°28' W 167°21'0 0.0 1002.2 14.7
2018-Apr-13 03:00S 45°28' W 167°21'0 0.0 1001.9 14.8
2018-Apr-13 02:00S 45°28' W 167°21'1 1.5 1002.0 14.8
2018-Apr-13 01:00S 45°26' W 167°22'1 0.1 1002.1 14.8
2018-Apr-12 20:00S 45°27' W 167°22'1 0.6 999.6 14.8
2018-Apr-12 19:00S 45°28' W 167°22'0 0.4 998.2 14.8
2018-Apr-12 18:00S 45°28' W 167°23'1 1.2 996.7 14.8
2018-Apr-12 17:00S 45°29' W 167°23'1 1.5 995.6 14.9
2018-Apr-12 16:00S 45°30' W 167°24'0 0.0 995.1 14.9
2018-Apr-12 15:00S 45°30' W 167°24'1 1.4 994.3 14.9
2018-Apr-12 14:00S 45°31' W 167°26'4 3.8 993.1 15.0
2018-Apr-12 13:00S 45°30' W 167°31'0 0.0 991.8 15.0
2018-Apr-12 11:00S 45°30' W 167°31'0 0.0 986.3 15.2
2018-Apr-12 10:00S 45°30' W 167°31'2 2.0 982.0 15.2
2018-Apr-12 09:00S 45°28' W 167°32'1 0.7 981.2 15.3
2018-Apr-12 08:00S 45°28' W 167°32'1 0.7 978.8 15.3
2018-Apr-12 07:00S 45°27' W 167°32'0 0.4 976.6 15.3
2018-Apr-12 06:00S 45°27' W 167°32'0 0.0 978.2 15.2
2018-Apr-12 05:00S 45°27' W 167°32'   982.3 15.2

Dump ship's entire track history